Ullared, Sweden

8:50 AM CET on December 28, 2014 (GMT +0100)
IHALLAND20 | Change Station
CLOSE
Current Station
Personal Weather Station
Location: Skallinge, halland
Elevation: 233 ft
Nearby Weather Stations

Elev 233 ft 57.18 °N, 12.46 °E | Updated 8 seconds ago

Clear
Clear
13.3 °F
Feels Like 13 °F
N
0.0
Wind Variable Wind from SE
Gusts 0.0 mph

Today
High -- | Low -- °F
--% Chance of Precip.
Yesterday
High -- | Low -- °F
Precip. -- in
8:48 AM 3:32 PM
Waxing Crescent, 45% visible
Pressure 30.21 in
Visibility 6.2 miles
Clouds
Windchill 13 °F
Dew Point 8 °F
Humidity 79%
Rainfall 0.00 in
Snow Depth Not available.
UV Not available.
Pollen Not available.
Air Quality Not available.
Flu Activity Not available.
METAR ESMT 280720Z AUTO 02003KT 9999 NCD M10/M11 Q1023

More Conditions Fewer Conditions

Pressure 30.21 in
Visibility 6.2 miles
Clouds
Windchill 13 °F
Dew Point 8 °F
Humidity 79%
Rainfall 0.00 in
Snow Depth Not available.
UV Not available.
Pollen Not available.
Air Quality Not available.
Flu Activity Not available.
METAR ESMT 280720Z AUTO 02003KT 9999 NCD M10/M11 Q1023

More Conditions Fewer Conditions

10-Day Weather Forecast

Almanac

Astronomy

Dec. 28, 2014 Rise Set
Actual Time
Civil Twilight
Nautical Twilight
Astronomical Twilight
Moon
Length of Visible Light
Length of Day
Tomorrow will be .
, % of the Moon is Illuminated

Today's Extremes

Country Highs Country Lows

Community

WunderPhotos

Upload Photos

1,781,210 photos uploaded!

WunderBlogs® & News

Nearby

Air Quality

  Air Quality AQ Index Pollutant
Not available.

Snow Depth

Station Depth Elevation

Earthquake Activity

City Distance Mag. Time & Date
Minimum magnitude displayed is 2.5.

Coastal Water Temperatures

Place Temperature

Nearby Weather Stations